Date,TemperatureHighF,TemperatureAvgF,TemperatureLowF,DewpointHighF,DewpointAvgF,DewpointLowF,HumidityHigh,HumidityAvg,HumidityLow,PressureMaxIn,PressureMinIn,WindSpeedMaxMPH,WindSpeedAvgMPH,GustSpeedMaxMPH,PrecipitationSumIn
2013-1-1,36.3,25.4,21.5,23.3,16.0,12.9,74,67,57,30.26,30.20,12,4,12,0.00
2013-1-2,26.2,22.7,0.0,18.5,15.3,-6.3,75,73,70,30.28,30.16,9,4,9,0.00
2013-1-5,37.0,33.9,31.8,28.4,25.4,22.4,85,71,65,30.29,30.17,14,5,14,0.00
2013-1-6,34.5,32.5,30.7,28.7,26.9,24.0,83,80,76,30.28,30.12,15,8,15,0.00
2013-1-7,33.4,24.7,0.0,21.7,16.4,-7.1,84,72,61,30.44,30.30,16,8,16,0.00
2013-1-8,39.9,35.6,34.1,28.5,26.5,25.1,73,70,61,30.25,30.15,20,6,20,0.00
2013-1-9,51.0,42.1,35.4,36.7,31.4,26.6,78,66,49,30.53,30.07,24,8,24,0.00
2013-1-10,42.6,32.2,25.5,31.2,25.3,21.1,85,76,59,30.58,30.39,19,2,19,0.00
2013-1-13,35.2,31.7,29.1,31.9,28.3,24.9,88,87,85,30.12,29.96,10,1,11,0.02
2013-1-14,27.6,23.2,19.4,19.5,16.1,13.5,79,74,70,30.54,30.44,0,0,0,0.00
2013-1-15,34.8,24.4,14.7,23.3,16.6,10.7,84,73,59,30.51,30.20,6,0,6,0.00
2013-1-16,36.5,25.1,17.7,22.6,18.0,13.2,85,75,51,30.20,29.93,22,6,22,0.00
2013-1-17,41.7,31.6,25.5,29.3,17.8,12.3,73,57,50,30.45,30.27,21,7,21,0.00
2013-1-18,42.4,32.1,24.6,26.9,20.2,14.0,73,61,53,30.46,30.00,23,10,25,0.14
2013-1-19,47.4,41.6,39.9,35.9,30.4,26.5,75,64,56,30.01,29.79,24,11,24,0.02
2013-1-20,40.8,22.1,17.2,29.5,11.7,8.0,72,64,51,30.36,29.81,33,10,33,1.94
2013-1-21,14.7,11.9,9.1,7.7,4.5,1.5,78,72,66,30.26,30.10,20,8,20,0.00
2013-1-22,13.6,9.5,6.4,6.1,2.0,-1.6,78,71,65,30.41,30.22,19,7,19,0.00
2013-1-23,20.4,15.8,12.3,16.8,8.9,2.7,86,74,64,30.34,30.16,28,7,28,0.10
2013-1-24,24.9,16.6,10.2,12.2,7.2,2.7,82,67,46,30.70,30.24,20,2,20,0.00
2013-1-25,23.0,16.8,15.2,17.1,8.4,4.1,80,70,61,30.47,30.09,14,3,14,0.00
2013-1-26,33.6,30.2,26.4,21.7,20.2,18.2,71,66,60,30.48,30.39,8,2,8,0.00
2013-1-27,29.3,27.7,26.0,20.1,19.3,18.2,73,70,68,30.48,30.39,11,5,11,0.00
2013-1-28,42.9,41.4,39.0,41.0,39.2,36.3,93,92,90,30.09,30.02,6,1,6,0.00
2013-1-29,58.8,56.1,51.4,55.2,53.3,48.6,94,90,87,29.83,29.48,21,8,21,0.19
2013-1-30,51.6,36.7,26.4,49.3,34.0,22.1,92,90,83,29.56,29.25,12,1,12,0.51
2013-1-31,26.4,20.7,16.5,22.1,14.6,9.1,84,77,71,29.97,29.56,21,6,21,0.00
2013-2-1,12.0,11.2,10.7,5.9,5.3,3.7,80,77,69,30.41,30.34,14,6,14,0.00
2013-2-2,26.0,21.4,17.4,22.9,17.9,12.7,89,87,81,30.15,30.03,10,4,10,0.00
2013-2-3,23.5,22.0,19.2,17.6,15.4,13.6,84,76,69,30.13,30.01,17,6,20,0.00
2013-2-4,33.4,23.9,19.7,25.6,18.8,14.6,87,81,70,30.11,29.95,13,2,13,0.00
2013-2-5,30.9,24.7,14.5,26.9,20.1,10.8,88,83,73,30.08,29.90,16,4,16,0.00
2013-2-6,39.3,30.4,23.5,23.2,20.9,17.0,77,68,51,30.35,30.08,54,3,54,0.04
2013-2-7,44.0,32.8,28.5,33.4,26.4,22.8,85,77,65,30.23,29.90,10,2,10,0.16
2013-2-8,43.7,32.7,28.0,31.1,26.2,20.3,89,78,59,30.44,29.91,20,5,20,0.00
2013-2-9,38.4,27.1,17.4,25.8,19.8,12.7,83,74,60,30.48,30.19,14,2,14,0.00
2013-2-10,46.5,37.0,28.0,43.5,30.8,20.3,90,78,71,30.20,29.64,21,6,21,0.00
2013-2-11,49.2,37.1,31.8,44.3,28.9,22.8,89,72,67,30.02,29.61,29,12,29,0.35
2013-2-12,29.4,28.5,27.6,23.1,21.7,20.4,77,75,72,30.20,30.00,12,4,12,0.00
2013-2-13,49.1,31.6,21.9,32.9,24.5,18.0,86,76,53,30.01,29.82,13,2,13,0.00
2013-2-14,41.1,35.2,30.7,32.7,28.9,24.2,85,78,68,30.03,29.71,22,6,22,0.00
2013-2-15,37.0,30.8,26.7,25.7,21.8,14.3,83,70,54,30.26,30.00,16,4,16,0.00
2013-2-16,22.6,19.3,0.0,13.3,9.8,-10.2,75,67,60,30.24,30.17,22,6,22,0.00
2013-2-17,39.5,23.3,0.0,21.2,13.0,-13.1,82,65,46,30.30,30.16,10,2,10,0.00
2013-2-18,51.9,38.6,24.0,42.8,27.9,11.7,88,66,56,30.18,29.50,26,9,26,0.39
2013-2-19,44.7,21.9,16.5,41.5,16.5,10.3,89,80,76,30.14,29.50,62,1,62,0.08
2013-2-20,24.4,20.0,16.3,18.0,13.9,0.0,80,77,74,30.43,30.13,22,6,22,0.00
2013-2-21,30.0,25.0,21.9,20.5,17.9,15.7,78,74,67,30.47,30.12,16,2,16,0.04
2013-2-22,33.4,27.4,21.5,30.4,22.9,15.4,89,83,73,30.13,29.89,18,6,18,0.00
2013-2-23,29.8,27.8,26.4,24.1,21.0,18.6,81,75,70,30.05,29.92,18,7,18,0.00
2013-2-24,42.0,31.0,24.4,30.4,23.3,18.8,80,73,59,30.26,29.98,16,3,16,0.00
2013-2-25,48.0,32.7,19.5,30.2,22.7,15.4,86,68,46,30.27,30.11,9,1,9,0.00
2013-2-26,35.4,32.6,30.7,29.6,26.0,22.1,89,77,63,30.11,29.55,18,4,18,0.20
2013-2-27,35.4,33.5,32.3,32.5,30.6,29.5,91,89,88,29.70,29.51,11,1,11,0.00
2013-2-28,42.9,34.3,31.6,34.7,30.4,25.9,91,86,71,30.09,29.69,20,4,20,0.00
2013-3-1,42.9,33.4,26.7,28.3,23.9,17.7,79,68,54,30.24,30.04,15,3,17,0.00
2013-3-2,37.2,29.5,24.0,23.3,19.6,15.9,73,66,56,30.24,30.15,17,3,20,0.00
2013-3-3,41.0,30.0,0.0,23.9,17.6,-8.3,71,60,42,30.20,30.11,14,3,14,0.00
2013-3-4,41.1,30.4,19.7,21.8,17.4,12.7,77,59,42,30.23,30.13,11,1,11,0.00
2013-3-5,32.1,30.1,3.2,25.8,22.4,-0.1,86,73,60,30.13,29.91,17,3,17,0.00
2013-3-6,48.7,34.5,27.5,32.8,27.3,22.6,86,76,54,30.34,29.97,16,4,16,0.08
2013-3-7,46.0,36.1,31.8,34.5,29.3,23.8,87,77,60,30.50,30.31,14,3,14,0.00
2013-3-8,44.4,32.9,18.1,26.5,21.6,0.0,84,65,47,30.59,30.46,10,2,10,0.00
2013-3-9,44.2,33.8,0.0,33.2,25.1,-8.9,74,70,59,30.42,29.98,14,4,14,0.00
2013-3-10,57.3,48.9,40.2,46.4,39.7,32.9,86,71,61,29.98,29.77,20,5,23,0.21
2013-3-11,53.2,43.0,33.9,47.0,39.6,30.1,90,88,68,29.82,29.64,20,6,20,0.04
2013-3-12,38.1,32.9,29.6,30.3,27.2,0.0,88,80,62,30.03,29.81,22,6,22,0.00
2013-3-13,36.3,29.2,25.5,25.5,19.8,14.7,87,69,51,30.38,30.01,23,8,23,0.00
2013-3-14,43.7,33.3,28.0,27.8,21.1,15.9,82,61,43,30.39,30.18,12,3,12,0.00
2013-3-15,42.9,35.9,29.1,34.2,30.4,25.1,87,81,69,30.18,29.89,11,3,11,0.04
2013-3-16,37.2,33.8,29.6,33.0,28.3,14.4,88,81,71,30.17,29.74,17,2,17,0.00
2013-3-17,42.6,33.2,28.5,24.8,21.0,18.4,73,61,47,30.31,30.14,15,3,15,0.00
2013-3-18,34.3,29.8,27.5,31.3,23.7,18.5,90,78,66,30.14,29.70,26,5,26,0.04
2013-3-19,34.3,26.0,20.6,20.2,15.5,12.8,74,65,50,30.09,29.80,25,10,25,0.02
2013-3-20,21.9,20.4,19.2,13.0,10.4,9.4,75,65,59,30.15,30.05,19,6,19,0.00
2013-3-21,33.0,26.7,19.5,21.4,16.6,10.6,73,66,57,30.13,29.99,18,5,18,0.00
2013-3-22,44.4,31.8,25.3,25.7,19.4,15.8,74,61,46,30.14,30.04,13,3,13,0.00
2013-3-23,49.6,33.1,22.4,29.7,22.6,16.8,83,67,44,30.23,30.08,13,1,13,0.00
2013-3-24,43.3,33.2,28.0,27.3,22.7,19.5,76,66,51,30.09,29.73,18,3,18,0.12
2013-3-25,35.7,32.4,30.7,26.6,23.5,20.8,73,70,65,29.90,29.67,58,5,58,0.02
2013-3-26,43.5,37.3,33.9,32.6,29.2,28.1,81,73,63,30.30,30.21,16,4,16,0.00
2013-3-27,50.7,40.0,33.9,33.7,30.7,27.4,85,71,48,30.39,30.26,14,4,14,0.00
2013-3-28,53.7,44.5,32.7,33.3,26.9,21.9,65,51,38,30.43,30.37,9,2,9,0.00
2013-3-29,57.9,43.3,23.7,31.7,24.6,18.5,82,50,31,30.43,30.32,12,2,12,0.00
2013-3-30,59.1,42.5,24.0,34.7,26.7,17.5,78,56,37,30.33,29.97,97,4,97,0.00
2013-3-31,56.4,46.7,37.9,41.2,36.9,29.6,89,70,51,29.97,29.80,18,5,18,0.02
2013-4-1,44.6,35.9,27.3,30.5,21.2,15.1,76,56,38,30.22,29.92,21,6,21,0.00
2013-4-2,41.1,33.0,26.7,23.2,18.7,15.8,65,56,48,30.36,30.19,18,6,18,0.00
2013-4-3,48.9,37.1,21.7,24.2,20.1,14.6,75,52,36,30.54,30.41,14,2,14,0.00
2013-4-4,55.0,34.0,23.9,22.9,18.4,14.9,72,56,27,30.42,30.06,15,2,15,0.00
2013-4-5,50.1,42.9,34.7,28.5,26.1,24.0,68,52,41,30.31,30.20,20,5,20,0.00
2013-4-6,67.2,49.5,33.9,41.8,30.6,24.0,71,50,34,30.24,29.73,26,7,26,0.15
2013-4-7,63.6,51.7,41.7,46.1,38.1,30.3,82,61,43,30.08,29.69,23,6,23,0.40
2013-4-8,64.0,48.5,39.9,55.6,39.6,29.9,89,72,63,30.06,29.75,25,6,25,0.19
2013-4-9,71.7,58.1,46.9,58.9,48.9,40.4,81,72,63,30.04,29.92,14,3,14,0.00
2013-4-10,46.4,43.5,41.1,43.0,39.5,37.4,90,85,83,30.07,29.90,13,3,13,0.00
2013-4-11,43.5,41.8,39.5,40.8,38.9,36.7,91,89,87,29.99,29.71,20,4,20,0.68
2013-4-12,46.0,41.5,38.4,37.2,35.2,31.8,83,78,70,29.91,29.76,20,8,20,0.00
2013-4-13,43.3,39.7,35.7,32.2,29.9,28.2,78,68,58,30.08,29.90,27,6,27,0.00
2013-4-14,63.1,45.8,33.6,45.8,36.6,27.7,81,71,51,30.10,29.85,22,4,22,0.00
2013-4-15,65.4,58.1,45.6,55.9,49.2,41.7,87,73,62,30.05,29.83,21,8,21,0.45
2013-4-16,58.8,48.7,41.1,42.7,36.9,31.1,88,66,42,30.34,30.02,14,2,14,0.08
2013-4-17,54.1,48.5,42.9,43.4,38.3,32.3,81,68,59,30.35,30.08,13,2,13,0.29
2013-4-18,68.3,59.0,0.0,63.9,55.8,-2.5,93,89,83,29.74,29.53,21,8,21,0.06
2013-4-19,49.6,38.6,34.1,46.4,31.6,28.6,89,76,67,29.92,29.57,26,10,26,0.19
2013-4-20,50.1,38.8,32.0,29.5,24.2,19.5,76,57,39,30.52,29.92,22,5,22,0.00
2013-4-21,53.2,43.3,27.1,29.9,24.3,19.2,75,49,34,30.64,30.45,18,4,18,0.20
2013-4-22,66.7,48.8,0.0,37.3,31.3,-22.5,74,53,28,30.45,30.18,16,3,16,0.00
2013-4-23,65.3,53.3,41.7,48.9,41.0,33.3,83,64,48,30.18,29.97,18,3,18,0.24
2013-4-24,52.8,42.8,35.7,33.3,30.1,24.2,86,62,37,30.21,29.95,17,6,17,0.00
2013-4-25,54.1,45.4,38.8,38.1,32.8,28.7,80,62,47,30.42,30.12,21,6,21,0.04
2013-4-26,66.3,50.6,33.0,43.2,35.0,26.2,76,57,39,30.48,30.35,20,5,20,0.00
2013-4-27,71.4,58.2,42.0,47.1,39.5,34.7,77,53,30,30.40,30.12,14,2,14,0.00
2013-4-28,66.0,56.3,50.5,51.9,46.8,43.7,84,71,54,30.12,29.94,5,0,5,0.02
2013-4-29,77.7,53.4,0.0,56.0,44.4,-10.2,92,72,45,30.02,29.93,11,3,11,0.00
2013-4-30,84.0,72.4,0.0,60.6,56.1,-7.7,79,58,44,30.09,29.94,19,7,19,0.08
2013-5-1,95.1,75.8,62.4,61.0,56.6,53.2,73,54,31,30.28,30.08,15,2,15,0.00
2013-5-2,71.2,59.8,49.6,55.3,48.2,41.3,74,66,53,30.29,30.22,7,1,7,0.00
2013-5-3,63.6,59.9,54.6,53.2,49.2,43.1,76,68,56,30.14,30.05,10,1,10,0.00
2013-5-4,77.7,66.0,57.7,52.5,45.9,39.1,76,50,29,30.13,30.05,13,2,13,0.06
2013-5-5,85.8,65.3,52.3,50.8,44.6,39.4,63,49,28,30.13,30.06,10,1,10,0.00
2013-5-6,74.4,60.3,55.2,48.3,41.1,38.0,59,49,33,30.13,30.06,8,0,8,0.00
2013-5-7,84.7,63.2,46.7,53.4,45.4,39.1,79,56,29,30.15,30.07,10,1,10,0.00
2013-5-8,86.1,72.7,52.8,54.0,47.7,41.7,76,44,24,30.14,30.07,14,1,14,0.00
2013-5-9,84.0,65.0,48.9,56.0,49.3,40.9,79,59,33,30.08,29.98,10,1,10,0.06
2013-5-10,62.0,54.8,45.3,57.5,50.8,42.3,90,86,79,29.98,29.84,16,2,16,0.12
2013-5-11,54.3,47.7,38.8,48.7,39.0,32.9,85,72,62,30.08,29.92,18,3,18,0.00
2013-5-12,60.4,46.5,39.5,36.5,32.7,29.9,80,60,39,30.23,30.06,18,3,18,0.00
2013-5-13,73.9,63.9,49.6,35.5,33.6,31.0,50,34,22,30.30,30.22,6,1,6,0.00
2013-5-14,91.9,80.4,71.2,58.9,55.3,52.9,55,43,32,29.90,29.75,12,2,12,0.00
2013-5-15,90.3,78.0,64.0,60.0,52.5,44.5,57,42,28,29.95,29.71,24,4,24,0.00
2013-5-16,87.4,61.8,0.0,51.1,45.9,-24.2,77,58,29,30.05,29.93,6,0,6,0.00
2013-5-17,81.8,71.8,59.5,55.0,49.9,42.3,56,46,38,30.16,30.09,10,1,10,0.00
2013-5-18,87.9,70.8,57.7,62.9,51.5,40.7,68,51,42,30.18,30.08,107,1,107,0.00
2013-5-19,93.7,76.0,59.9,67.5,59.2,51.4,76,58,39,30.10,29.90,12,1,12,0.00
2013-5-20,90.3,79.6,71.7,65.8,63.6,58.3,80,60,37,29.97,29.86,21,3,21,0.00
2013-5-21,84.0,73.3,63.5,66.6,62.8,58.3,90,71,54,29.96,29.82,18,3,18,0.37
2013-5-22,73.2,67.9,61.7,65.2,61.5,55.8,88,80,68,29.85,29.78,13,1,13,0.24
2013-5-23,61.7,50.3,45.6,56.1,46.4,42.3,89,86,81,30.12,29.84,14,3,14,0.15
2013-5-24,64.5,56.8,43.8,44.1,40.1,35.2,78,55,40,30.52,30.42,12,1,12,0.00
2013-5-25,66.3,52.3,38.4,50.0,41.2,33.1,86,67,46,30.50,30.38,7,0,7,0.00
2013-5-26,76.2,59.4,41.1,46.9,42.1,36.0,84,57,33,30.41,30.26,13,1,13,0.00
2013-5-27,62.4,57.4,52.8,53.1,48.8,39.6,88,74,46,30.28,29.99,16,3,16,0.04
2013-5-28,78.9,68.4,55.9,69.5,62.5,52.4,92,82,68,30.00,29.88,18,3,18,0.29
2013-5-29,90.1,73.2,61.8,71.6,63.8,58.4,90,74,53,30.09,29.89,18,2,18,0.00
2013-5-30,87.4,77.2,70.1,70.5,65.9,60.9,83,69,52,30.09,29.99,21,3,21,0.12
2013-5-31,77.0,72.3,65.4,67.3,64.5,59.8,88,77,68,30.07,29.88,15,3,15,0.16
2013-6-1,78.2,70.7,61.7,65.6,62.3,56.1,89,75,61,29.94,29.80,15,3,15,0.24
2013-6-2,62.4,57.0,49.2,59.3,48.9,40.7,90,75,58,30.12,29.81,21,3,21,0.00
2013-6-3,76.6,58.3,42.6,50.2,43.9,38.0,86,62,36,30.22,30.12,6,0,6,0.00
2013-6-4,84.5,63.2,45.5,55.4,46.5,39.9,82,58,35,30.29,30.17,24,1,24,0.00
2013-6-5,86.0,71.1,59.3,53.2,48.6,44.7,66,46,31,30.20,30.04,15,1,15,0.00
2013-6-6,80.4,64.8,56.4,57.9,50.0,45.3,71,59,43,30.05,29.96,7,0,7,0.00
2013-6-7,79.3,64.3,53.4,57.1,49.3,41.3,79,60,40,30.03,29.97,22,1,22,0.00
2013-6-8,80.9,60.9,46.0,54.8,46.3,40.2,83,62,31,30.12,29.99,8,0,8,0.00
2013-6-9,85.1,71.9,59.1,64.1,56.5,47.6,78,60,42,30.12,29.95,9,1,9,0.00
2013-6-10,75.5,68.4,60.6,65.2,61.2,56.1,88,78,58,29.97,29.85,9,1,9,0.13
2013-6-11,90.1,71.4,57.9,66.9,61.2,55.5,92,73,44,30.04,29.94,10,1,10,0.00
2013-6-12,92.3,81.1,65.8,75.5,70.2,60.5,86,70,57,30.01,29.68,18,1,18,0.08
2013-6-13,76.2,68.0,59.5,61.8,56.8,50.9,88,69,51,30.11,29.72,17,1,17,0.12
2013-6-14,80.7,68.1,54.1,62.0,54.3,48.9,84,63,44,30.22,30.10,6,0,6,0.00
2013-6-15,76.1,66.6,56.4,64.1,58.0,50.0,81,74,64,30.16,29.99,6,0,6,0.04
2013-6-16,87.4,75.0,63.6,68.0,63.4,57.2,88,69,38,30.03,29.95,21,2,21,0.10
2013-6-17,91.2,75.1,63.1,65.2,59.3,52.0,87,62,30,30.08,29.97,13,1,13,0.23
2013-6-18,84.0,70.0,60.4,63.6,57.8,49.8,85,67,46,30.16,29.99,14,1,14,0.00
2013-6-19,88.3,69.9,54.3,52.8,48.5,44.7,71,50,27,30.26,30.16,6,0,6,0.00
2013-6-20,101.1,76.1,53.7,63.9,55.7,46.5,79,53,29,30.28,30.21,6,0,6,0.00
2013-6-21,87.4,76.2,68.3,67.0,63.8,59.5,84,67,48,30.27,30.10,11,1,11,0.25
2013-6-22,90.6,77.4,68.3,73.6,68.1,62.8,85,74,56,30.22,30.08,13,1,13,0.00
2013-6-23,85.2,73.3,67.2,69.6,65.1,62.2,85,76,57,30.18,30.13,14,1,14,0.00
2013-6-24,90.1,79.8,67.6,70.3,66.6,62.1,85,65,49,30.20,30.01,23,2,23,0.00
2013-6-25,89.2,75.3,66.7,75.7,67.8,62.8,90,78,61,30.11,29.96,13,2,13,0.52
2013-6-26,85.8,75.0,66.3,72.5,67.1,63.4,91,77,61,30.02,29.86,11,1,11,0.47
2013-6-27,90.1,74.4,65.6,73.8,66.2,61.5,87,77,57,29.91,29.82,9,0,9,0.03
2013-6-28,90.1,77.0,66.0,66.4,63.9,61.9,88,66,45,29.79,29.72,12,2,12,0.00
2013-6-29,83.6,71.1,63.8,67.8,62.5,58.9,85,75,56,29.86,29.69,16,0,16,0.00
2013-6-30,87.4,72.5,63.6,66.9,61.3,57.2,80,69,50,30.08,29.85,11,0,11,0.00
2013-7-1,86.7,74.8,64.5,59.4,54.7,51.0,74,51,38,30.18,30.07,12,1,12,0.00
2013-7-2,68.1,62.3,60.0,57.8,54.3,47.9,88,76,56,30.18,30.13,4,0,4,0.37
2013-7-3,78.0,67.6,59.7,66.5,61.4,56.2,91,81,64,30.19,30.10,9,1,9,0.00
2013-7-4,82.0,71.1,58.8,65.0,61.0,55.2,91,72,55,30.23,30.17,14,0,14,0.00
2013-7-5,93.0,79.1,61.8,69.5,65.2,57.9,88,65,45,30.21,30.15,3,0,3,0.00
2013-7-6,84.0,74.7,68.5,70.5,67.2,63.5,85,78,63,30.21,30.11,10,0,10,0.18
2013-7-7,71.7,70.3,68.9,67.4,66.5,65.4,89,88,85,30.16,30.12,4,0,4,0.00
2013-7-8,82.2,77.0,72.3,72.1,69.4,66.2,86,78,67,30.18,30.08,15,3,22,0.02
2013-7-9,88.1,78.0,69.6,76.7,71.5,65.8,90,81,67,30.12,30.01,13,2,13,0.12
2013-7-10,90.6,80.6,67.4,74.6,68.4,57.1,86,68,45,30.11,29.98,14,2,14,0.00
2013-7-11,89.4,74.1,60.9,63.6,58.9,53.5,86,62,39,30.21,30.10,64,1,64,0.00
2013-7-12,93.9,74.5,56.3,67.5,60.0,50.8,86,63,41,30.24,30.16,13,0,23,0.00
2013-7-13,94.8,76.0,60.4,69.4,61.4,54.8,84,63,41,30.29,30.22,13,0,13,0.00
2013-7-14,100.0,82.3,68.7,74.1,67.6,61.2,82,63,44,30.36,30.29,5,0,5,0.00
2013-7-15,101.1,82.2,73.4,78.4,72.5,67.1,83,73,49,30.43,30.35,2,0,9,0.09
2013-7-16,98.2,84.6,73.2,76.7,72.9,69.8,89,70,49,30.47,30.41,10,1,11,0.00
2013-7-17,98.4,86.8,78.4,76.2,72.8,70.5,79,65,45,30.48,30.36,8,1,8,0.00
2013-7-18,98.4,84.9,76.8,76.3,73.7,71.2,85,71,48,30.36,30.23,8,1,8,0.00
2013-7-19,95.7,89.5,82.5,74.2,72.7,71.4,73,58,47,30.10,29.96,22,8,22,0.00
2013-7-20,98.7,85.2,75.3,72.6,68.3,64.9,82,60,36,30.10,29.96,17,1,17,0.00
2013-7-21,98.7,79.5,66.5,71.6,63.8,57.8,76,60,40,30.10,30.04,7,0,7,0.00
2013-7-22,94.2,83.0,68.7,71.8,68.1,63.8,85,62,46,29.98,29.90,20,1,20,0.00
2013-7-23,76.8,71.5,63.8,68.5,60.6,51.2,78,69,55,30.05,29.82,10,2,12,0.00
2013-7-24,84.0,64.9,54.3,55.6,49.6,45.4,73,60,37,30.16,30.05,8,0,8,0.00
2013-7-25,85.8,75.5,61.3,59.6,55.1,51.0,79,51,34,30.22,30.15,9,1,9,0.00
2013-7-26,74.1,64.3,60.4,60.6,55.9,50.1,83,74,61,30.17,29.99,17,1,17,0.00
2013-7-27,66.9,63.5,60.6,63.3,55.9,48.0,89,77,63,30.01,29.95,9,1,9,0.16
2013-7-28,70.5,62.2,56.3,55.0,50.8,48.0,80,67,56,30.09,29.94,15,4,15,0.00
2013-7-29,82.4,68.5,59.1,60.4,55.2,50.5,74,64,45,30.30,30.08,12,1,12,0.00
2013-7-30,59.0,54.7,52.5,50.7,48.7,47.4,87,80,74,30.30,30.27,0,0,0,0.00
2013-7-31,71.2,68.0,64.9,66.1,63.8,60.9,89,86,84,30.15,30.06,6,0,6,0.00
2013-8-1,87.9,74.3,63.6,67.3,63.7,53.7,91,72,38,30.09,30.03,12,1,12,0.00
2013-8-2,85.8,69.1,57.9,70.3,60.8,51.4,90,75,59,30.08,29.95,13,1,13,0.61
2013-8-3,89.4,74.9,64.2,67.4,62.1,54.6,90,67,41,30.21,30.03,9,0,9,0.00
2013-8-4,85.2,68.5,56.8,60.7,55.3,51.3,83,65,42,30.31,30.20,9,0,9,0.00
2013-8-5,67.2,61.4,54.1,54.6,52.7,49.0,83,74,63,30.20,30.12,2,0,2,0.00
2013-8-6,84.9,74.7,63.5,71.3,67.2,60.4,91,78,63,30.02,29.97,11,1,11,0.33
2013-8-7,84.3,71.6,0.0,72.5,65.4,-7.7,92,82,64,30.06,29.92,6,0,6,0.00
2013-8-8,87.4,72.6,62.2,65.1,60.4,57.6,86,67,44,30.13,30.05,6,0,7,0.00
2013-8-9,85.8,73.1,59.9,64.1,60.0,54.4,85,65,42,30.13,30.07,9,0,9,0.00
2013-8-10,92.4,80.5,66.3,65.4,60.1,52.7,81,53,33,30.24,30.12,10,1,10,0.00
2013-8-11,77.9,65.3,60.0,59.5,55.1,52.8,79,70,49,30.24,30.21,6,0,6,0.00
2013-8-13,79.7,70.0,61.5,60.3,52.5,48.2,86,56,41,30.23,30.04,10,1,10,0.00
2013-8-14,81.1,65.1,51.6,53.6,48.7,43.6,75,57,35,30.31,30.23,6,0,6,0.00
2013-8-15,79.1,64.8,48.7,58.3,52.0,43.3,83,65,45,30.27,30.20,10,1,10,0.00
2013-8-16,87.6,69.5,55.5,62.7,55.8,49.9,86,65,40,30.29,30.22,6,0,6,0.00
2013-8-17,90.3,73.0,55.7,61.9,56.0,50.2,84,58,35,30.34,30.27,2,0,6,0.00
2013-8-18,91.0,72.4,57.3,62.7,56.7,50.9,80,60,36,30.32,30.22,5,0,5,0.00
2013-8-19,90.3,71.9,57.2,63.5,58.2,51.7,84,64,37,30.23,30.15,8,1,8,0.00
2013-8-20,91.0,76.7,63.1,68.3,63.7,57.8,87,66,47,30.25,30.18,9,1,9,0.00
2013-8-21,91.9,77.2,66.2,69.1,65.3,61.3,87,68,46,30.23,30.10,13,1,13,0.00
2013-8-22,80.7,71.3,66.7,70.2,66.3,62.6,89,84,62,30.25,30.11,16,2,16,0.69
2013-8-23,92.1,76.5,64.7,65.6,62.6,57.1,90,66,39,30.29,30.21,9,0,9,0.00
2013-8-24,83.8,77.7,66.3,61.3,59.5,57.1,78,55,44,30.39,30.36,7,1,7,0.00
2013-8-25,91.2,90.0,89.2,67.4,66.6,65.9,48,46,45,30.31,30.29,9,3,9,0.00
2013-8-26,87.9,83.6,78.4,72.6,70.0,66.5,71,64,59,30.27,30.14,16,4,16,0.00
2013-8-27,81.5,78.8,76.8,71.1,69.7,68.9,77,74,69,30.15,30.09,22,6,22,0.00
2013-8-28,89.2,78.3,72.3,75.0,70.5,66.7,87,77,61,30.15,30.02,8,1,8,0.00
2013-8-29,93.0,77.0,64.5,73.7,67.8,60.6,90,75,53,30.20,30.11,6,0,6,0.00
2013-8-30,94.2,79.0,66.9,74.6,68.7,63.4,90,73,51,30.12,29.85,14,2,14,0.00
2013-8-31,89.2,75.7,69.4,73.2,66.9,63.8,84,75,58,29.99,29.90,6,0,6,0.00
2013-9-1,85.2,74.4,68.7,71.9,67.7,64.9,90,80,62,29.95,29.85,12,1,13,0.00
2013-9-2,84.7,72.7,64.2,69.4,62.5,52.8,87,72,51,30.09,29.88,22,1,22,0.04
2013-9-3,78.9,66.9,59.0,60.5,55.1,51.0,79,67,52,30.18,30.07,9,0,9,0.00
2013-9-4,81.6,67.0,53.4,63.2,56.6,49.6,91,71,47,30.23,30.14,10,1,10,0.00
2013-9-5,85.8,66.0,60.4,57.3,55.3,50.3,84,71,35,30.35,30.21,9,0,9,0.00
2013-9-6,85.6,67.9,51.8,63.3,54.3,45.5,80,64,45,30.34,30.14,8,0,8,0.00
2013-9-7,84.9,72.2,63.1,67.4,62.3,56.4,85,72,50,30.15,30.02,14,1,14,0.04
2013-9-8,83.1,72.6,66.0,66.9,64.1,61.6,89,76,56,30.16,30.06,15,1,15,0.00
2013-9-9,94.6,77.8,64.9,74.7,66.4,56.8,78,69,52,30.12,29.96,12,1,12,0.00
2013-9-10,96.4,83.9,78.6,72.2,68.2,64.9,69,60,37,30.18,30.00,17,5,17,0.00
2013-9-11,90.3,79.8,70.8,70.8,67.4,64.0,82,67,51,30.22,30.10,15,2,15,0.10
2013-9-12,86.7,73.2,62.9,67.7,60.1,49.8,86,65,43,30.16,30.03,16,1,16,0.00
2013-9-13,73.4,61.7,50.9,50.1,46.2,42.2,72,58,40,30.25,30.16,14,1,14,0.00
2013-9-14,73.0,56.0,41.7,49.1,43.2,36.8,85,64,42,30.27,30.14,13,1,13,0.00
2013-9-15,59.5,54.9,50.5,54.2,47.6,40.6,88,76,65,30.22,30.11,5,0,5,0.19
2013-9-16,73.5,59.9,52.3,55.6,50.8,44.2,90,74,49,30.42,30.22,11,0,11,0.00
2013-9-17,78.4,58.5,44.6,55.8,47.4,40.5,87,69,44,30.44,30.25,5,0,5,0.00
2013-9-18,82.5,67.2,55.7,62.9,55.3,47.4,79,67,50,30.26,30.04,13,0,13,0.00
2013-9-19,75.0,70.0,66.0,68.7,65.5,60.7,92,86,77,30.14,29.93,10,2,10,0.77
2013-9-20,75.3,70.6,64.5,70.2,65.0,55.3,91,82,72,29.95,29.87,13,3,13,0.16
2013-9-21,68.3,62.8,59.5,56.1,51.9,47.4,81,68,54,30.01,29.85,16,2,16,0.02
2013-9-22,73.9,61.2,50.5,49.9,47.0,41.8,79,61,41,30.15,30.00,12,0,12,0.00
2013-9-23,77.5,56.8,43.7,54.2,44.6,38.5,84,66,41,30.22,30.13,16,0,16,0.00
2013-9-24,78.4,67.7,54.3,52.1,48.4,44.5,70,51,37,30.12,30.03,5,0,6,0.00
2013-9-25,80.6,60.5,46.7,59.3,49.1,41.1,85,68,47,30.08,30.02,8,0,8,0.00
2013-9-26,84.5,78.7,71.2,57.5,53.9,47.8,52,43,35,30.17,30.15,6,1,6,0.00
2013-9-27,84.0,70.8,0.0,54.3,49.5,-11.3,73,48,33,30.28,30.18,7,1,7,0.00
2013-9-28,83.8,67.6,0.0,58.3,53.4,-3.7,85,63,39,30.22,30.04,13,1,13,0.00
2013-9-29,77.5,61.1,0.0,60.6,49.1,-12.0,84,65,47,30.13,30.02,14,2,14,0.23
2013-9-30,73.9,55.7,46.9,57.1,48.2,0.0,89,78,55,30.09,30.00,2,0,2,0.00
2013-10-1,75.0,60.3,0.0,64.4,56.0,-4.4,92,86,69,30.08,30.00,14,2,14,0.00
2013-10-2,87.8,76.4,63.3,57.5,53.2,49.4,65,46,34,30.19,30.12,7,0,7,0.00
2013-10-3,63.3,62.9,62.7,51.7,51.5,51.2,67,66,66,30.13,30.12,0,0,0,0.00
2013-10-4,79.8,73.3,69.0,70.2,65.9,63.1,85,78,71,30.12,30.06,9,1,9,0.00
2013-10-5,80.2,70.7,65.6,72.5,66.5,62.9,92,87,73,30.08,29.91,15,1,15,0.37
2013-10-6,66.2,61.4,52.8,63.7,58.7,49.6,92,91,89,29.92,29.84,13,2,13,0.29
2013-10-7,67.8,58.8,48.2,50.0,46.6,42.0,80,65,50,30.20,30.03,14,1,14,0.00
2013-10-8,82.5,60.4,47.1,56.2,47.9,41.5,85,66,38,30.31,30.19,8,0,8,0.00
2013-10-9,80.4,60.6,45.3,55.0,47.8,39.7,82,65,41,30.37,30.26,9,0,9,0.00
2013-10-10,82.5,65.4,45.5,56.8,50.9,40.8,85,62,40,30.28,30.17,6,0,6,0.00
2013-10-11,83.3,60.8,47.1,53.8,47.2,42.2,85,65,34,30.21,30.09,5,0,5,0.00
2013-10-12,78.2,61.5,52.1,59.0,51.0,45.1,85,70,51,30.14,30.08,15,2,15,0.00
2013-10-13,71.7,61.6,46.2,47.3,43.4,38.0,73,52,40,30.47,30.43,11,1,11,0.00
2013-10-14,75.9,53.4,39.5,48.0,40.8,34.5,85,65,36,30.49,30.28,12,0,12,0.00
2013-10-15,64.0,48.9,47.1,57.3,42.1,39.0,81,77,70,30.29,29.92,8,1,8,0.00
2013-10-16,52.7,52.4,52.1,45.6,45.3,44.8,77,77,76,29.98,29.95,17,4,17,0.00
2013-10-17,50.9,50.0,49.6,46.4,45.9,45.2,89,86,85,29.92,29.90,18,6,18,0.08
2013-10-18,50.5,45.7,38.4,44.2,39.7,35.2,89,80,67,30.04,29.93,20,3,20,0.00
2013-10-19,55.4,48.7,41.5,41.5,37.6,33.4,88,67,48,30.01,29.86,22,4,22,0.18
2013-10-20,61.7,52.8,42.6,45.4,41.4,36.8,83,66,51,30.00,29.85,21,6,21,0.00
2013-10-21,58.2,49.5,41.9,46.7,39.0,27.2,83,68,53,30.03,29.88,26,5,26,0.14
2013-10-22,49.2,41.4,36.6,33.3,30.4,26.5,86,66,53,30.06,29.97,18,4,19,0.07
2013-10-23,46.5,38.7,34.1,38.3,31.5,26.8,89,76,55,30.07,29.89,17,2,17,0.02
2013-10-24,43.1,41.0,37.2,33.0,29.5,26.3,75,63,57,30.32,30.02,13,3,13,0.00
2013-10-25,49.1,42.5,37.2,32.6,30.6,27.8,79,63,48,30.46,30.30,12,3,12,0.03
2013-10-26,51.0,49.0,47.4,37.6,33.5,31.1,60,55,52,30.10,29.97,19,4,19,0.00
2013-10-27,56.4,46.2,35.7,38.6,32.6,28.2,80,60,45,30.13,30.05,17,3,17,0.00
2013-10-28,69.2,46.9,32.1,44.4,34.5,27.2,84,64,40,30.42,30.09,5,0,5,0.00
2013-10-29,58.8,45.1,34.5,41.9,35.0,28.6,80,69,51,30.44,30.22,13,1,13,0.00
2013-10-30,60.9,53.5,42.9,55.1,46.6,36.5,91,77,70,30.23,29.89,9,2,9,0.65
2013-10-31,63.3,59.9,52.1,61.0,57.4,48.9,93,91,88,29.90,29.26,22,7,22,0.45
2013-11-1,52.1,47.5,46.0,48.9,41.4,37.8,89,79,68,29.75,29.36,22,6,22,0.14
2013-11-2,48.5,45.8,42.2,42.8,40.6,36.5,87,82,70,30.13,29.74,14,2,14,0.17
2013-11-3,51.9,42.9,36.5,39.7,35.7,32.6,91,76,57,30.36,30.13,12,1,12,0.03
2013-11-4,53.4,46.4,39.0,41.7,36.6,33.4,81,69,54,30.38,30.21,20,4,20,0.00
2013-11-5,55.7,52.6,49.8,48.2,44.6,41.4,86,74,67,30.36,30.10,16,4,16,0.00
2013-11-6,57.9,50.7,42.6,52.5,45.6,34.2,90,83,66,30.12,29.84,21,8,21,0.05
2013-11-7,46.7,42.2,38.8,34.4,31.6,28.7,73,66,56,30.25,30.12,22,6,22,0.12
2013-11-8,50.1,41.7,36.8,33.2,30.4,26.7,79,64,51,30.32,30.09,16,3,16,0.00
2013-11-9,58.1,49.2,43.3,44.7,36.6,29.7,71,62,52,30.09,29.89,25,11,25,0.12
2013-11-10,56.4,43.6,36.5,35.8,31.2,27.3,72,62,44,30.35,30.07,22,6,25,0.37
2013-11-11,47.4,38.9,28.0,37.6,31.3,23.2,85,75,61,30.42,30.10,22,5,22,0.08
2013-11-12,35.4,28.3,26.4,28.5,23.1,19.9,87,81,66,30.62,30.41,15,1,15,0.00
2013-11-13,40.1,31.5,19.9,24.7,20.3,12.8,81,64,47,30.59,30.21,22,7,22,0.00
2013-11-14,48.0,39.1,28.7,28.8,23.2,17.7,66,53,44,30.22,29.98,18,9,22,0.00
2013-11-15,47.1,42.2,37.2,32.8,28.8,24.8,72,59,50,30.02,29.97,15,5,15,0.00
2013-11-16,57.7,49.0,40.8,54.3,43.4,31.5,89,81,68,30.00,29.66,20,6,20,0.06
2013-11-17,65.1,58.2,46.2,60.3,53.7,38.4,90,85,74,29.70,29.28,25,8,25,0.39
2013-11-18,42.9,37.9,35.4,35.9,28.2,25.5,76,68,61,30.29,29.78,13,0,13,0.14
2013-11-19,60.4,40.6,32.3,37.7,28.4,23.4,70,63,42,30.43,30.29,0,0,0,0.00
2013-11-20,46.9,36.8,29.3,32.7,26.6,22.3,78,67,48,30.37,30.15,15,2,15,0.49
2013-11-21,52.1,44.2,0.0,43.7,38.5,-4.7,91,79,68,30.21,30.14,17,3,17,0.00
2013-11-22,46.2,39.3,33.0,43.7,34.0,25.8,91,81,71,30.50,30.19,24,5,24,0.04
2013-11-23,34.3,27.5,22.8,26.4,17.1,11.6,73,65,60,30.63,30.38,24,8,24,0.18
2013-11-24,35.2,23.9,20.4,14.4,8.9,2.7,69,53,37,30.68,30.39,19,6,19,0.00
2013-11-25,28.9,21.7,0.0,14.0,8.5,0.0,62,56,47,30.40,30.10,21,9,21,0.00
2013-11-26,36.1,29.6,0.0,28.2,20.8,-6.6,77,68,58,30.03,29.96,19,8,19,0.00
2013-11-27,34.3,30.5,28.9,22.5,20.3,17.9,72,66,60,30.21,30.09,21,9,21,0.00
2013-11-28,24.0,24.0,24.0,18.5,18.5,18.5,79,79,79,30.24,30.23,2,0,2,0.00
2013-11-29,42.6,32.7,27.6,24.6,20.1,17.6,71,60,47,30.58,30.43,12,2,12,0.00
2013-11-30,55.2,39.0,30.0,34.1,26.6,21.2,73,62,44,30.43,30.08,17,5,17,0.00
2013-12-1,49.8,39.4,31.4,36.0,30.4,24.5,83,71,53,30.10,29.99,11,1,11,0.00
2013-12-2,46.9,35.8,29.4,30.5,27.1,23.7,83,71,50,30.00,29.81,15,2,15,0.00
2013-12-3,48.0,41.5,33.6,45.3,38.1,28.6,90,88,77,29.82,29.72,13,4,13,0.00
2013-12-4,58.2,50.8,45.3,54.2,47.5,42.3,92,88,79,29.80,29.60,19,5,19,0.00
2013-12-5,56.4,34.2,27.6,50.6,26.5,19.2,81,73,63,30.23,29.64,22,6,22,0.00
2013-12-6,28.0,25.7,23.5,19.8,17.3,13.7,73,70,66,30.42,30.21,13,4,13,0.00
2013-12-7,23.5,20.4,15.6,14.4,11.7,8.7,76,69,65,30.64,30.42,16,3,16,0.00
2013-12-8,24.0,19.3,15.2,17.5,12.3,9.3,79,74,66,30.53,30.19,10,2,10,0.00
2013-12-9,26.0,20.6,14.7,18.2,11.9,6.5,74,69,65,30.20,30.11,21,8,21,0.00
2013-12-10,24.0,16.1,2.4,14.1,8.0,-3.9,80,70,60,30.23,29.96,21,7,21,0.02
2013-12-11,27.6,19.8,13.4,18.8,12.7,5.0,85,74,62,30.47,30.21,22,6,22,0.00
2013-12-12,25.7,16.6,2.3,18.5,8.0,-6.1,75,69,54,30.47,30.17,21,7,21,0.00
2013-12-13,46.9,24.5,14.1,30.3,16.3,8.5,80,71,48,30.17,30.09,13,2,13,0.00
2013-12-14,27.6,24.6,22.4,21.7,19.4,16.8,85,80,74,30.11,29.83,6,2,8,0.00
2013-12-15,28.7,22.1,18.3,23.7,15.2,9.9,83,75,69,30.04,29.83,22,6,22,0.00
2013-12-16,23.7,18.2,11.4,14.3,10.9,5.5,84,73,61,30.11,29.96,11,3,11,0.00
2013-12-17,32.7,26.4,17.9,26.1,21.1,14.0,89,81,69,30.00,29.88,20,6,20,0.00
2013-12-18,34.8,29.1,25.3,23.9,18.5,13.4,74,65,48,30.14,29.82,57,7,57,0.00
2013-12-19,44.4,39.6,34.8,36.6,32.7,24.2,85,77,65,29.92,29.79,19,5,19,0.03
2013-12-20,41.3,37.1,33.9,38.9,34.3,30.9,91,90,85,29.80,29.68,5,0,5,0.02
2013-12-21,37.0,34.8,32.3,34.0,32.0,29.6,90,90,88,29.81,29.58,85,1,85,0.00
2013-12-22,35.4,33.2,31.1,32.8,30.1,26.5,92,88,83,30.04,29.80,12,4,14,0.00
2013-12-23,31.1,30.4,30.0,26.5,26.1,25.7,85,84,83,30.07,30.04,8,6,8,0.00
2013-12-24,30.3,17.4,11.8,17.1,8.8,5.3,80,69,52,30.60,30.47,10,2,10,0.00
2013-12-25,27.3,23.1,0.0,24.4,18.6,0.0,90,82,71,30.35,30.15,17,7,17,0.00
2013-12-26,27.3,26.9,26.7,23.6,23.4,23.2,87,87,86,30.15,30.13,10,8,10,0.00
2013-12-27,41.0,36.5,0.0,30.6,27.7,-8.6,69,67,66,30.23,30.06,22,10,22,0.00
2013-12-28,55.0,42.7,0.0,36.8,31.7,-6.0,76,65,50,30.09,29.86,22,8,22,0.00
2013-12-29,41.0,32.8,0.0,31.7,25.6,-6.3,82,75,64,30.08,29.74,22,7,22,0.00
2013-12-30,21.7,18.2,14.3,14.6,9.9,-14.5,79,71,22,30.24,30.08,14,5,14,0.00